Time;durP1;ratioP1;P1;durP2;ratioP2;P2;SDS_P1;SDS_P2;PMS_P1;PMS_P2;Temp;Humidity;BMP_temperature;BMP_pressure;BME280_temperature;BME280_humidity;BME280_pressure;Samples;Min_cycle;Max_cycle;Signal;HPM_P1;HPM_P2
2023/05/02 00:00:03;;;;;;;9.50;6.93;;;11.40;99.90;;;;;;5054238;28;20088;-75
2023/05/02 00:02:29;;;;;;;12.05;7.22;;;11.40;99.90;;;;;;5054227;28;20132;-74
2023/05/02 00:04:55;;;;;;;14.50;7.82;;;11.30;99.90;;;;;;5052899;28;20091;-74
2023/05/02 00:07:21;;;;;;;11.50;7.03;;;11.20;99.90;;;;;;5053960;28;20045;-75
2023/05/02 00:09:47;;;;;;;10.82;5.88;;;11.10;99.90;;;;;;5054010;28;20094;-75
2023/05/02 00:12:13;;;;;;;9.10;5.47;;;11.20;99.90;;;;;;5053569;28;20071;-74
2023/05/02 00:14:38;;;;;;;5.80;5.20;;;11.10;99.90;;;;;;5053990;28;20045;-75
2023/05/02 00:17:04;;;;;;;9.07;6.25;;;11.00;99.90;;;;;;5053431;28;20076;-75
2023/05/02 00:19:30;;;;;;;6.35;4.85;;;11.00;99.90;;;;;;5054065;28;20056;-75
2023/05/02 00:21:55;;;;;;;4.97;4.40;;;11.00;99.90;;;;;;5053793;28;20516;-75
2023/05/02 00:29:32;;;;;;;9.50;5.60;;;10.80;99.90;;;;;;3715938;26;20053;-74
2023/05/02 00:32:03;;;;;;;6.78;4.90;;;10.60;99.90;;;;;;4982406;28;20053;-74
2023/05/02 00:41:37;;;;;;;7.05;4.63;;;10.50;99.90;;;;;;5001005;28;20057;-69
2023/05/02 00:44:03;;;;;;;8.57;4.82;;;10.60;99.90;;;;;;4996601;28;20053;-69
2023/05/02 00:46:29;;;;;;;7.40;4.20;;;10.60;99.90;;;;;;5013630;28;20046;-69
2023/05/02 00:48:54;;;;;;;12.38;4.28;;;10.60;99.90;;;;;;5014197;28;20041;-69
2023/05/02 00:51:21;;;;;;;5.38;4.40;;;10.70;99.90;;;;;;5013549;28;20543;-68
2023/05/02 00:53:47;;;;;;;6.13;4.50;;;10.60;99.90;;;;;;5013319;28;20097;-69
2023/05/02 00:56:13;;;;;;;9.70;5.22;;;10.70;99.90;;;;;;5013563;28;20045;-69
2023/05/02 00:58:40;;;;;;;5.30;4.63;;;10.70;99.90;;;;;;5013376;28;20515;-69
2023/05/02 01:01:24;;;;;;;8.80;4.90;;;10.70;99.90;;;;;;5013657;28;20058;-69
2023/05/02 01:03:59;;;;;;;6.15;5.38;;;10.70;99.90;;;;;;4995627;28;20442;-69
2023/05/02 01:06:30;;;;;;;7.95;4.55;;;10.70;99.90;;;;;;4996165;28;20042;-67
2023/05/02 01:09:21;;;;;;;7.88;4.40;;;10.80;99.90;;;;;;5013765;28;20382;-70
2023/05/02 01:12:18;;;;;;;6.75;3.80;;;10.70;99.90;;;;;;4996110;28;20113;-68
2023/05/02 01:14:49;;;;;;;9.93;4.13;;;10.70;99.90;;;;;;5013585;28;20041;-69
2023/05/02 01:17:18;;;;;;;6.10;4.43;;;10.60;99.90;;;;;;4995510;28;20052;-69
2023/05/02 01:19:50;;;;;;;6.35;4.50;;;10.70;99.90;;;;;;5013037;28;20050;-69
2023/05/02 01:22:18;;;;;;;7.78;4.55;;;10.70;99.90;;;;;;5013444;28;20056;-69
2023/05/02 01:25:06;;;;;;;6.22;4.07;;;10.60;99.90;;;;;;5013223;28;20042;-70
2023/05/02 01:28:04;;;;;;;7.13;4.18;;;10.60;99.90;;;;;;5013232;28;20067;-69
2023/05/02 01:30:33;;;;;;;6.70;3.80;;;10.60;99.90;;;;;;5012748;28;20081;-69
2023/05/02 01:33:02;;;;;;;7.13;4.05;;;10.60;99.90;;;;;;5012809;28;20049;-69
2023/05/02 01:35:29;;;;;;;9.63;5.03;;;10.60;99.90;;;;;;5012931;28;20064;-67
2023/05/02 01:37:57;;;;;;;7.00;3.63;;;10.60;99.90;;;;;;5013194;28;20052;-67
2023/05/02 01:40:25;;;;;;;9.10;4.10;;;10.70;99.90;;;;;;5013333;28;20434;-67
2023/05/02 01:42:53;;;;;;;8.27;4.00;;;10.70;99.90;;;;;;5013215;28;20045;-68
2023/05/02 01:45:20;;;;;;;6.75;4.53;;;10.70;99.90;;;;;;5012666;28;20108;-67
2023/05/02 01:47:47;;;;;;;7.82;4.68;;;10.60;99.90;;;;;;5012545;28;20389;-67
2023/05/02 01:50:17;;;;;;;6.32;3.92;;;10.60;99.90;;;;;;5012638;28;20060;-67
2023/05/02 01:52:46;;;;;;;6.95;4.53;;;10.60;99.90;;;;;;5013109;28;20053;-67
2023/05/02 01:55:14;;;;;;;11.93;5.47;;;10.50;99.90;;;;;;5012529;28;20052;-67
2023/05/02 01:57:42;;;;;;;14.00;5.55;;;10.40;99.90;;;;;;5012837;28;20061;-68
2023/05/02 02:00:10;;;;;;;10.65;5.60;;;10.10;99.90;;;;;;5012524;28;20081;-68
2023/05/02 02:02:38;;;;;;;11.48;5.43;;;10.00;99.90;;;;;;5012918;28;20084;-68
2023/05/02 02:05:06;;;;;;;17.42;6.03;;;9.80;99.90;;;;;;5013180;28;20056;-69
2023/05/02 02:07:32;;;;;;;12.45;5.50;;;9.60;99.90;;;;;;5012882;28;20048;-68
2023/05/02 02:09:58;;;;;;;14.70;5.55;;;9.40;99.90;;;;;;5012833;28;20046;-68
2023/05/02 02:12:37;;;;;;;11.50;5.28;;;9.30;99.90;;;;;;4995098;28;20463;-68
2023/05/02 02:15:08;;;;;;;13.40;5.57;;;9.20;99.90;;;;;;5013028;28;20064;-68
2023/05/02 02:17:42;;;;;;;16.15;6.38;;;9.30;99.90;;;;;;5012880;28;20052;-68
2023/05/02 02:20:11;;;;;;;12.65;5.85;;;9.10;99.90;;;;;;5012364;28;20046;-68
2023/05/02 02:22:39;;;;;;;19.52;6.93;;;9.10;99.90;;;;;;5012404;28;20053;-69
2023/05/02 02:25:09;;;;;;;16.02;6.97;;;9.00;99.90;;;;;;5012188;28;20489;-68
2023/05/02 02:27:36;;;;;;;15.05;6.63;;;9.00;99.90;;;;;;4978995;28;20049;-68
2023/05/02 02:30:03;;;;;;;18.55;7.57;;;9.10;99.90;;;;;;4994667;28;20053;-68
2023/05/02 02:32:28;;;;;;;17.33;7.15;;;9.00;99.90;;;;;;5012082;28;20049;-68
2023/05/02 02:34:54;;;;;;;17.58;7.13;;;9.00;99.90;;;;;;5012208;28;20057;-71
2023/05/02 02:37:29;;;;;;;15.90;7.40;;;9.00;99.90;;;;;;5012844;28;20053;-68
2023/05/02 02:40:06;;;;;;;20.98;7.13;;;9.10;99.90;;;;;;5012249;28;20522;-68
2023/05/02 02:43:00;;;;;;;13.00;6.40;;;9.10;99.90;;;;;;4995080;28;20136;-68
2023/05/02 02:45:47;;;;;;;20.60;7.40;;;9.10;99.90;;;;;;5006367;28;20060;-68
2023/05/02 02:48:21;;;;;;;26.63;8.45;;;9.00;99.90;;;;;;5011733;28;20532;-68
2023/05/02 02:51:16;;;;;;;13.93;7.18;;;9.00;99.90;;;;;;5012482;28;20054;-68
2023/05/02 02:54:05;;;;;;;17.55;7.30;;;8.90;99.90;;;;;;5009539;28;20133;-68
2023/05/02 02:56:41;;;;;;;18.77;6.40;;;8.90;99.90;;;;;;5012085;28;20046;-68
2023/05/02 02:59:26;;;;;;;20.52;7.82;;;8.80;99.90;;;;;;5012505;28;20046;-69
2023/05/02 03:02:14;;;;;;;15.48;6.93;;;8.80;99.90;;;;;;5015778;28;20107;-68
2023/05/02 03:04:44;;;;;;;17.15;7.25;;;8.80;99.90;;;;;;4998099;28;20125;-69
2023/05/02 03:07:10;;;;;;;15.65;7.55;;;8.80;99.90;;;;;;5015390;28;20122;-68
2023/05/02 03:09:54;;;;;;;14.48;6.93;;;8.80;99.90;;;;;;5015337;28;20444;-68
2023/05/02 03:12:20;;;;;;;12.30;6.68;;;8.80;99.90;;;;;;5015470;28;20072;-69
2023/05/02 03:14:46;;;;;;;13.23;5.90;;;8.80;99.90;;;;;;5015277;28;20486;-68
2023/05/02 03:17:12;;;;;;;12.90;7.00;;;8.80;99.90;;;;;;5015551;28;20500;-68
2023/05/02 03:19:37;;;;;;;16.45;6.53;;;8.70;99.90;;;;;;5015149;28;20050;-68
2023/05/02 03:22:03;;;;;;;13.38;6.07;;;8.70;99.90;;;;;;5015117;28;20041;-68
2023/05/02 03:24:30;;;;;;;13.73;6.38;;;8.70;99.90;;;;;;5014961;28;20050;-68
2023/05/02 03:26:57;;;;;;;17.50;6.18;;;8.60;99.90;;;;;;5014715;28;20500;-69
2023/05/02 03:29:24;;;;;;;15.65;7.13;;;8.60;99.90;;;;;;5014966;28;20466;-69
2023/05/02 03:31:50;;;;;;;15.10;6.03;;;8.60;99.90;;;;;;5015338;28;20477;-68
2023/05/02 03:34:16;;;;;;;15.75;5.72;;;8.50;99.90;;;;;;4997452;28;20081;-68
2023/05/02 03:36:42;;;;;;;12.23;5.45;;;8.50;99.90;;;;;;5014830;28;20065;-68
2023/05/02 03:39:08;;;;;;;9.95;5.18;;;8.40;99.90;;;;;;5014752;28;20046;-68
2023/05/02 03:41:33;;;;;;;13.35;5.03;;;8.30;99.90;;;;;;5014875;28;20056;-68
2023/05/02 03:43:59;;;;;;;11.35;5.32;;;8.30;99.90;;;;;;5014674;28;20500;-69
2023/05/02 03:46:25;;;;;;;12.65;5.53;;;8.30;99.90;;;;;;5014571;28;20065;-68
2023/05/02 03:48:51;;;;;;;7.45;4.50;;;8.30;99.90;;;;;;5014622;28;20546;-68
2023/05/02 03:51:16;;;;;;;12.50;5.05;;;8.20;99.90;;;;;;5014540;28;20433;-68
2023/05/02 03:53:42;;;;;;;12.32;4.18;;;8.20;99.90;;;;;;5014728;28;20065;-69
2023/05/02 03:56:08;;;;;;;9.02;4.35;;;8.30;99.90;;;;;;4997535;28;20045;-68
2023/05/02 03:58:35;;;;;;;7.65;4.10;;;8.30;99.90;;;;;;4997409;28;20593;-69
2023/05/02 04:01:01;;;;;;;6.90;3.80;;;8.20;99.90;;;;;;5014353;28;20054;-69
2023/05/02 04:03:27;;;;;;;8.05;4.07;;;8.30;99.90;;;;;;5014763;28;20042;-69
2023/05/02 04:05:53;;;;;;;8.23;4.05;;;8.20;99.90;;;;;;5014236;28;20091;-69
2023/05/02 04:08:19;;;;;;;10.90;3.75;;;8.20;99.90;;;;;;4996860;28;20057;-69
2023/05/02 04:10:45;;;;;;;9.80;4.13;;;8.10;99.90;;;;;;5013760;28;20236;-69
2023/05/02 04:13:11;;;;;;;6.47;3.45;;;8.20;99.90;;;;;;5014080;28;20046;-69
2023/05/02 04:15:37;;;;;;;13.43;3.72;;;8.10;99.90;;;;;;5013999;28;20056;-69
2023/05/02 04:18:02;;;;;;;8.20;4.15;;;8.10;99.90;;;;;;5014456;28;20072;-69
2023/05/02 04:20:29;;;;;;;9.20;3.80;;;8.10;99.90;;;;;;5014296;28;20049;-69
2023/05/02 04:22:54;;;;;;;8.48;3.40;;;8.20;99.90;;;;;;5013691;28;20500;-69
2023/05/02 04:25:20;;;;;;;9.02;3.75;;;8.10;99.90;;;;;;5013803;28;20050;-69
2023/05/02 04:27:46;;;;;;;10.25;3.33;;;8.20;99.90;;;;;;5013855;28;20048;-69
2023/05/02 04:30:12;;;;;;;11.40;3.53;;;8.10;99.90;;;;;;4996049;28;20058;-69
2023/05/02 04:32:38;;;;;;;11.15;3.65;;;8.10;99.90;;;;;;5013752;28;20166;-69
2023/05/02 04:35:04;;;;;;;9.98;3.83;;;8.10;99.90;;;;;;5014223;28;20084;-70
2023/05/02 04:37:30;;;;;;;7.22;3.30;;;8.00;99.90;;;;;;4996595;28;20116;-69
2023/05/02 04:39:56;;;;;;;5.53;2.97;;;8.10;99.90;;;;;;4996561;28;20135;-68
2023/05/02 04:42:22;;;;;;;7.78;3.60;;;8.10;99.90;;;;;;4996162;28;20081;-69
2023/05/02 04:44:49;;;;;;;6.25;2.83;;;8.10;99.90;;;;;;5013559;28;20053;-68
2023/05/02 04:47:14;;;;;;;6.05;2.92;;;8.10;99.90;;;;;;4996800;28;20133;-69
2023/05/02 04:49:41;;;;;;;4.05;2.55;;;8.00;99.90;;;;;;5013522;28;20073;-68
2023/05/02 04:52:09;;;;;;;11.35;3.22;;;8.10;99.90;;;;;;4996725;28;20544;-69
2023/05/02 04:54:35;;;;;;;3.08;2.65;;;8.00;99.90;;;;;;4995781;28;20137;-69
2023/05/02 04:57:02;;;;;;;7.22;2.92;;;8.10;99.90;;;;;;5013208;28;20041;-68
2023/05/02 04:59:29;;;;;;;4.85;2.38;;;8.00;99.90;;;;;;5013274;28;20052;-68
2023/05/02 05:01:55;;;;;;;5.80;2.70;;;8.10;99.90;;;;;;5013121;28;20120;-67
2023/05/02 05:04:21;;;;;;;8.85;3.22;;;8.20;99.90;;;;;;5013030;28;20121;-68
2023/05/02 05:06:48;;;;;;;5.68;2.88;;;8.20;99.90;;;;;;5012990;28;20092;-68
2023/05/02 05:09:14;;;;;;;5.63;3.30;;;8.20;99.90;;;;;;5012971;28;20058;-68
2023/05/02 05:11:41;;;;;;;6.28;2.97;;;8.20;99.90;;;;;;5012849;28;20045;-67
2023/05/02 05:14:07;;;;;;;5.72;2.35;;;8.20;99.90;;;;;;5012864;28;20050;-68
2023/05/02 05:16:33;;;;;;;6.30;3.17;;;8.20;99.90;;;;;;5012970;28;20045;-68
2023/05/02 05:18:59;;;;;;;6.65;3.75;;;8.20;99.90;;;;;;5012946;28;20049;-68
2023/05/02 05:21:26;;;;;;;5.82;3.17;;;8.20;99.90;;;;;;5012962;28;20466;-68
2023/05/02 05:23:51;;;;;;;9.68;3.75;;;8.30;99.90;;;;;;5012146;28;20052;-68
2023/05/02 05:26:18;;;;;;;10.35;3.53;;;8.30;99.90;;;;;;5012389;28;20049;-68
2023/05/02 05:28:44;;;;;;;6.45;3.75;;;8.30;99.90;;;;;;4995195;28;20073;-68
2023/05/02 05:31:11;;;;;;;8.25;3.30;;;8.30;99.90;;;;;;5012617;28;20050;-70
2023/05/02 05:33:38;;;;;;;7.22;3.58;;;8.30;99.90;;;;;;5012619;28;20041;-69
2023/05/02 05:36:05;;;;;;;9.98;4.07;;;8.30;99.90;;;;;;4995700;28;20145;-67
2023/05/02 05:38:31;;;;;;;7.05;3.42;;;8.30;99.90;;;;;;5012503;28;20088;-67
2023/05/02 05:40:57;;;;;;;15.55;3.80;;;8.30;99.90;;;;;;4995136;28;20046;-68
2023/05/02 05:43:22;;;;;;;8.40;3.75;;;8.30;99.90;;;;;;5012553;28;20065;-67
2023/05/02 05:45:52;;;;;;;7.15;3.42;;;8.30;99.90;;;;;;5012478;28;20045;-68
2023/05/02 05:48:17;;;;;;;14.68;4.25;;;8.40;99.90;;;;;;4995292;28;20046;-68
2023/05/02 05:50:43;;;;;;;5.30;3.88;;;8.30;99.90;;;;;;5012984;28;20050;-68
2023/05/02 05:53:09;;;;;;;7.68;3.50;;;8.30;99.90;;;;;;5012368;28;20054;-69
2023/05/02 05:55:36;;;;;;;13.43;4.20;;;8.30;99.90;;;;;;4995136;28;20129;-68
2023/05/02 05:58:02;;;;;;;7.97;3.65;;;8.30;99.90;;;;;;4995213;28;20128;-69
2023/05/02 06:00:28;;;;;;;9.57;4.43;;;8.20;99.90;;;;;;4978864;28;20470;-68
2023/05/02 06:02:54;;;;;;;10.82;4.15;;;8.30;99.90;;;;;;4995661;28;20058;-67
2023/05/02 06:05:20;;;;;;;12.32;4.20;;;8.20;99.90;;;;;;4994953;28;20100;-67
2023/05/02 06:07:45;;;;;;;8.68;4.72;;;8.20;99.90;;;;;;4994778;28;20082;-68
2023/05/02 06:10:11;;;;;;;8.95;4.07;;;8.30;99.90;;;;;;5012416;28;20050;-67
2023/05/02 06:12:37;;;;;;;8.35;4.80;;;8.30;99.90;;;;;;5012139;28;20038;-67
2023/05/02 06:15:03;;;;;;;8.95;3.95;;;8.40;99.90;;;;;;4994713;28;20045;-67
2023/05/02 06:17:28;;;;;;;11.65;4.22;;;8.40;99.90;;;;;;5012651;28;20069;-67
2023/05/02 06:19:54;;;;;;;7.22;3.75;;;8.30;99.90;;;;;;5012579;28;20052;-67
2023/05/02 06:22:20;;;;;;;7.90;3.72;;;8.30;99.90;;;;;;5012448;28;20128;-67
2023/05/02 06:24:46;;;;;;;7.00;4.13;;;8.40;99.90;;;;;;5012099;28;20098;-67
2023/05/02 06:27:12;;;;;;;5.63;3.35;;;8.40;99.90;;;;;;5012393;28;20041;-67
2023/05/02 06:29:37;;;;;;;6.93;3.90;;;8.40;99.90;;;;;;5011294;28;20513;-70
2023/05/02 06:32:03;;;;;;;8.93;4.32;;;8.50;99.90;;;;;;4995036;28;20046;-67
2023/05/02 06:34:32;;;;;;;10.23;3.88;;;8.50;99.90;;;;;;5014398;28;20054;-67
2023/05/02 06:36:58;;;;;;;6.88;3.72;;;8.50;99.90;;;;;;5015733;28;20049;-67
2023/05/02 06:39:24;;;;;;;9.00;3.72;;;8.50;99.90;;;;;;5015629;28;20050;-67
2023/05/02 06:41:50;;;;;;;6.55;4.18;;;8.50;99.90;;;;;;5015691;28;20058;-67
2023/05/02 06:44:16;;;;;;;7.40;4.32;;;8.50;99.90;;;;;;5016015;28;20042;-68
2023/05/02 06:46:42;;;;;;;11.48;4.25;;;8.60;99.90;;;;;;5015499;28;20050;-67
2023/05/02 06:49:08;;;;;;;7.47;3.50;;;8.60;99.90;;;;;;4997949;28;20443;-68
2023/05/02 06:51:33;;;;;;;5.65;3.83;;;8.60;99.90;;;;;;5015521;28;20053;-69
2023/05/02 06:53:59;;;;;;;9.48;4.07;;;8.40;99.00;;;;;;5015267;28;20110;-69
2023/05/02 06:56:25;;;;;;;8.35;4.07;;;8.40;98.50;;;;;;5015680;28;20111;-68
2023/05/02 06:58:51;;;;;;;6.18;3.97;;;8.40;98.30;;;;;;5015765;28;20046;-69
2023/05/02 07:01:17;;;;;;;8.93;4.20;;;8.50;99.20;;;;;;4997744;28;20073;-67
2023/05/02 07:03:42;;;;;;;6.90;4.35;;;8.50;99.60;;;;;;5015526;28;20169;-68
2023/05/02 07:06:08;;;;;;;7.97;4.07;;;8.60;99.70;;;;;;5014973;28;20046;-69
2023/05/02 07:08:34;;;;;;;11.40;4.20;;;8.50;98.50;;;;;;4997472;28;20125;-68
2023/05/02 07:11:01;;;;;;;11.90;4.57;;;8.60;99.00;;;;;;5015017;28;20108;-68
2023/05/02 07:13:27;;;;;;;7.22;3.65;;;8.60;99.00;;;;;;5015562;28;20042;-68
2023/05/02 07:15:53;;;;;;;7.78;4.30;;;8.50;98.50;;;;;;5015499;28;20459;-68
2023/05/02 07:18:18;;;;;;;9.65;4.03;;;8.60;98.80;;;;;;5015137;28;20057;-68
2023/05/02 07:20:44;;;;;;;9.90;3.80;;;8.60;98.70;;;;;;5015663;28;20060;-68
2023/05/02 07:23:10;;;;;;;7.47;4.00;;;8.60;98.30;;;;;;5015287;28;20424;-67
2023/05/02 07:25:36;;;;;;;11.20;4.43;;;8.80;98.40;;;;;;4997217;28;20366;-68
2023/05/02 07:28:02;;;;;;;7.53;3.53;;;8.80;98.60;;;;;;5015051;28;20054;-69
2023/05/02 07:30:28;;;;;;;8.27;3.25;;;9.00;98.90;;;;;;5014726;28;20049;-67
2023/05/02 07:32:53;;;;;;;10.18;4.15;;;9.10;99.20;;;;;;5014662;28;20053;-68
2023/05/02 07:35:19;;;;;;;6.63;3.90;;;9.20;98.60;;;;;;4997041;28;20060;-67
2023/05/02 07:37:45;;;;;;;6.88;4.00;;;9.40;98.70;;;;;;5014868;28;20042;-68
2023/05/02 07:40:11;;;;;;;8.85;4.00;;;9.30;97.40;;;;;;5014422;28;20050;-67
2023/05/02 07:42:36;;;;;;;12.20;4.00;;;9.40;97.50;;;;;;5014586;28;20053;-68
2023/05/02 07:45:02;;;;;;;9.52;4.85;;;9.60;97.60;;;;;;5013514;28;20426;-68
2023/05/02 07:47:28;;;;;;;7.93;3.88;;;9.70;95.60;;;;;;5014110;28;20065;-68
2023/05/02 07:49:55;;;;;;;6.60;4.20;;;9.80;96.70;;;;;;5014251;28;20180;-69
2023/05/02 07:52:21;;;;;;;9.55;3.58;;;9.90;97.50;;;;;;5014640;28;20056;-68
2023/05/02 07:54:50;;;;;;;7.07;3.70;;;9.70;96.40;;;;;;5013827;28;20042;-68
2023/05/02 07:57:16;;;;;;;5.97;3.50;;;9.80;96.80;;;;;;5014088;28;20058;-69
2023/05/02 07:59:42;;;;;;;7.95;3.58;;;9.60;96.50;;;;;;5014155;28;20053;-68
2023/05/02 08:02:08;;;;;;;9.30;4.50;;;9.50;95.60;;;;;;4981196;28;20365;-68
2023/05/02 08:04:34;;;;;;;5.60;3.58;;;9.60;97.10;;;;;;5014105;28;20090;-67
2023/05/02 08:06:59;;;;;;;6.43;3.60;;;9.60;96.90;;;;;;5013888;28;20111;-67
2023/05/02 08:09:25;;;;;;;4.75;3.30;;;9.70;96.30;;;;;;5014065;28;20054;-68
2023/05/02 08:11:51;;;;;;;8.27;3.47;;;9.60;96.50;;;;;;4996181;28;20494;-67
2023/05/02 08:14:17;;;;;;;6.30;3.35;;;9.60;97.20;;;;;;5013690;28;20045;-67
2023/05/02 08:16:43;;;;;;;6.53;4.18;;;9.70;96.70;;;;;;4996561;28;20095;-69
2023/05/02 08:19:09;;;;;;;6.95;3.50;;;9.70;96.50;;;;;;5013763;28;20200;-68
2023/05/02 08:21:35;;;;;;;6.47;3.65;;;9.70;96.20;;;;;;5014079;28;20050;-68
2023/05/02 08:24:01;;;;;;;7.35;2.90;;;9.70;96.70;;;;;;5013639;28;20064;-68
2023/05/02 08:26:27;;;;;;;4.03;2.83;;;9.80;96.50;;;;;;5013911;28;20082;-68
2023/05/02 08:28:53;;;;;;;7.20;2.90;;;9.70;96.60;;;;;;5013531;28;20061;-68
2023/05/02 08:31:20;;;;;;;5.10;2.88;;;9.80;96.80;;;;;;4996117;28;20237;-68
2023/05/02 08:33:46;;;;;;;5.20;2.60;;;9.60;97.40;;;;;;5013380;28;20068;-68
2023/05/02 08:36:17;;;;;;;4.15;3.03;;;10.00;96.60;;;;;;5013424;28;20048;-69
2023/05/02 08:38:43;;;;;;;2.92;2.20;;;10.10;95.90;;;;;;5013953;28;20054;-69
2023/05/02 08:41:13;;;;;;;4.82;2.50;;;10.30;96.60;;;;;;5013403;28;20053;-69
2023/05/02 08:43:39;;;;;;;3.97;2.30;;;10.50;96.40;;;;;;5013339;28;20046;-69
2023/05/02 08:46:09;;;;;;;3.33;1.67;;;11.00;95.00;;;;;;4995689;28;20096;-69
2023/05/02 08:48:36;;;;;;;5.47;2.47;;;12.00;95.10;;;;;;4995627;28;20042;-69
2023/05/02 08:51:02;;;;;;;2.80;2.00;;;12.50;94.80;;;;;;5013316;28;20042;-68
2023/05/02 08:53:34;;;;;;;2.42;1.40;;;12.40;94.80;;;;;;4995694;28;20045;-68
2023/05/02 08:55:59;;;;;;;2.22;1.45;;;11.80;93.50;;;;;;5013546;28;20046;-69
2023/05/02 08:58:25;;;;;;;3.88;2.13;;;11.50;93.90;;;;;;5013029;28;20071;-69
2023/05/02 09:00:52;;;;;;;2.28;1.70;;;11.40;94.30;;;;;;4995729;28;20046;-69
2023/05/02 09:03:31;;;;;;;4.40;2.00;;;11.40;94.10;;;;;;5013620;28;20131;-68
2023/05/02 09:06:19;;;;;;;2.05;1.42;;;11.50;92.60;;;;;;5013198;28;20047;-69
2023/05/02 09:08:51;;;;;;;2.67;1.30;;;11.40;91.20;;;;;;5013243;28;20070;-69
2023/05/02 09:11:18;;;;;;;5.90;1.77;;;11.40;90.60;;;;;;5013053;28;20563;-68
2023/05/02 09:13:45;;;;;;;2.25;1.65;;;11.60;92.30;;;;;;5012915;28;20126;-68
2023/05/02 09:16:24;;;;;;;3.95;1.95;;;11.80;91.90;;;;;;5013235;28;20054;-69
2023/05/02 09:18:54;;;;;;;3.65;1.80;;;11.90;93.30;;;;;;5013076;28;20544;-69
2023/05/02 09:21:25;;;;;;;2.67;1.45;;;11.60;92.00;;;;;;4995712;28;20045;-69
2023/05/02 09:23:54;;;;;;;1.85;1.38;;;11.30;91.50;;;;;;5013218;28;20042;-68
2023/05/02 09:26:42;;;;;;;4.97;1.98;;;11.20;92.40;;;;;;5012715;28;20065;-68
2023/05/02 09:29:08;;;;;;;4.30;1.67;;;11.20;92.80;;;;;;5012663;28;20058;-68
2023/05/02 09:31:40;;;;;;;4.47;1.52;;;11.30;92.30;;;;;;4995628;28;20095;-69
2023/05/02 09:34:11;;;;;;;2.58;1.98;;;11.10;90.90;;;;;;5013027;28;20554;-68
2023/05/02 09:36:42;;;;;;;2.45;1.60;;;11.10;92.40;;;;;;5013029;28;20100;-69
2023/05/02 09:39:12;;;;;;;2.45;1.48;;;11.10;92.60;;;;;;5012704;28;20088;-68
2023/05/02 09:41:45;;;;;;;2.67;1.90;;;11.20;92.30;;;;;;5012834;28;20475;-68
2023/05/02 09:44:12;;;;;;;;;;;10.90;92.20;;;;;;5013440;28;20447;-68
2023/05/02 09:46:42;;;;;;;6.50;1.63;;;10.90;93.40;;;;;;5012854;28;19970;-68
2023/05/02 09:49:11;;;;;;;4.93;1.90;;;10.90;93.00;;;;;;4995592;28;20133;-68
2023/05/02 09:51:37;;;;;;;4.82;2.28;;;11.00;94.10;;;;;;5012833;28;20050;-69
2023/05/02 09:54:03;;;;;;;3.53;1.80;;;11.10;94.00;;;;;;5012676;28;20497;-68
2023/05/02 09:56:29;;;;;;;4.75;1.98;;;11.20;94.10;;;;;;5012532;28;20049;-68
2023/05/02 09:59:15;;;;;;;3.45;1.80;;;11.10;93.50;;;;;;4995005;28;20050;-68
2023/05/02 10:01:41;;;;;;;5.47;2.10;;;11.10;95.20;;;;;;5012584;28;20050;-68
2023/05/02 10:04:17;;;;;;;4.63;1.50;;;11.00;95.30;;;;;;4995158;28;20054;-68
2023/05/02 10:06:43;;;;;;;3.80;1.48;;;11.00;95.80;;;;;;5013122;28;20046;-68
2023/05/02 10:09:12;;;;;;;2.88;2.08;;;11.00;95.90;;;;;;5014465;28;20046;-68
2023/05/02 10:11:40;;;;;;;2.70;1.67;;;11.10;95.60;;;;;;5016985;28;20050;-68
2023/05/02 10:14:11;;;;;;;2.90;1.80;;;11.30;95.50;;;;;;5016219;28;20037;-68
2023/05/02 10:16:53;;;;;;;2.00;1.80;;;11.40;95.30;;;;;;5016059;28;20129;-68
2023/05/02 10:19:26;;;;;;;4.15;1.70;;;11.50;94.50;;;;;;5016547;28;20049;-68
2023/05/02 10:21:53;;;;;;;1.98;1.33;;;11.30;92.80;;;;;;4999026;28;20056;-68
2023/05/02 10:24:20;;;;;;;2.30;1.40;;;11.50;94.40;;;;;;5015869;28;20484;-69
2023/05/02 10:26:47;;;;;;;6.05;2.00;;;12.00;94.70;;;;;;5016094;28;20049;-69
2023/05/02 10:29:13;;;;;;;3.75;1.67;;;12.10;94.10;;;;;;5016051;28;20057;-69
2023/05/02 10:31:41;;;;;;;4.88;1.85;;;12.00;94.00;;;;;;4998760;28;20046;-68
2023/05/02 10:34:09;;;;;;;3.85;1.65;;;11.80;94.30;;;;;;5016379;28;20073;-68
2023/05/02 10:36:35;;;;;;;2.83;1.40;;;11.50;93.70;;;;;;5015754;28;20594;-68
2023/05/02 10:39:02;;;;;;;3.80;1.67;;;11.30;94.70;;;;;;5016007;28;20058;-69
2023/05/02 10:41:30;;;;;;;2.17;1.40;;;10.90;94.30;;;;;;5015971;28;20053;-68
2023/05/02 10:43:57;;;;;;;3.13;1.95;;;10.80;94.90;;;;;;5015838;28;20080;-68
2023/05/02 10:46:31;;;;;;;3.42;1.70;;;10.70;94.70;;;;;;5015702;28;20477;-69
2023/05/02 10:49:14;;;;;;;3.50;1.77;;;10.60;94.60;;;;;;5015904;28;20046;-69
2023/05/02 10:51:41;;;;;;;2.33;1.65;;;10.60;95.20;;;;;;5015946;28;20049;-69
2023/05/02 10:54:18;;;;;;;2.88;1.65;;;11.00;95.50;;;;;;5015552;28;20048;-69
2023/05/02 10:57:02;;;;;;;2.70;1.83;;;11.40;94.70;;;;;;5015722;28;20050;-68
2023/05/02 10:59:30;;;;;;;9.32;2.13;;;11.20;93.90;;;;;;5015757;28;20062;-68
2023/05/02 11:01:57;;;;;;;2.13;1.40;;;11.20;92.80;;;;;;5015659;28;20149;-67
2023/05/02 11:04:23;;;;;;;9.25;2.38;;;11.20;94.50;;;;;;5015284;28;20096;-67
2023/05/02 11:07:01;;;;;;;4.45;1.83;;;11.30;95.00;;;;;;5015249;28;20041;-67
2023/05/02 11:09:26;;;;;;;8.82;1.65;;;11.20;94.70;;;;;;5015538;28;20050;-67
2023/05/02 11:11:55;;;;;;;2.72;1.48;;;11.00;94.00;;;;;;4997574;28;20053;-67
2023/05/02 11:14:29;;;;;;;4.63;1.95;;;10.90;95.20;;;;;;5015429;28;20046;-67
2023/05/02 11:16:58;;;;;;;4.00;1.80;;;11.00;95.50;;;;;;5015072;28;20057;-67
2023/05/02 11:19:25;;;;;;;2.75;1.73;;;11.00;94.50;;;;;;5014885;28;20046;-67
2023/05/02 11:21:56;;;;;;;4.07;1.67;;;11.20;94.80;;;;;;5014325;28;20046;-67
2023/05/02 11:24:41;;;;;;;5.20;2.85;;;11.30;94.90;;;;;;5015029;28;20041;-67
2023/05/02 11:27:29;;;;;;;3.33;1.80;;;11.20;96.10;;;;;;5015443;28;20125;-69
2023/05/02 11:30:05;;;;;;;4.88;2.15;;;11.10;96.50;;;;;;5014823;28;20062;-69
2023/05/02 11:32:52;;;;;;;6.25;1.65;;;11.20;96.60;;;;;;5015445;28;20045;-68
2023/05/02 11:35:31;;;;;;;2.08;1.90;;;11.40;96.50;;;;;;5015060;28;20088;-68
2023/05/02 11:38:05;;;;;;;4.47;2.65;;;11.30;95.60;;;;;;5014926;28;20438;-68
2023/05/02 11:40:31;;;;;;;4.10;1.73;;;11.50;96.10;;;;;;5014965;28;20060;-68
2023/05/02 11:42:59;;;;;;;4.63;2.05;;;11.50;95.70;;;;;;4997383;28;20052;-68
2023/05/02 11:45:38;;;;;;;2.53;1.23;;;11.40;94.90;;;;;;5014743;28;20128;-68
2023/05/02 11:48:07;;;;;;;6.47;1.98;;;11.40;95.20;;;;;;5014872;28;20081;-68
2023/05/02 11:50:40;;;;;;;7.32;1.63;;;11.70;95.30;;;;;;4997566;28;20053;-68
2023/05/02 11:53:13;;;;;;;2.05;1.35;;;11.80;94.70;;;;;;5015115;28;20077;-68
2023/05/02 11:55:50;;;;;;;5.38;1.77;;;12.20;94.40;;;;;;4997304;28;20058;-68
2023/05/02 11:58:18;;;;;;;3.83;1.33;;;12.20;93.80;;;;;;4997839;28;20057;-68
2023/05/02 12:00:45;;;;;;;1.30;1.20;;;12.30;94.50;;;;;;4996901;28;20115;-68
2023/05/02 12:03:29;;;;;;;2.97;1.77;;;12.20;94.70;;;;;;4996946;28;20045;-68
2023/05/02 12:05:55;;;;;;;2.00;1.50;;;12.00;95.10;;;;;;5014262;28;20042;-68
2023/05/02 12:08:24;;;;;;;4.90;1.42;;;11.60;95.50;;;;;;5014247;28;20046;-68
2023/05/02 12:10:51;;;;;;;5.38;1.13;;;11.60;96.20;;;;;;5014023;28;20501;-68
2023/05/02 12:13:17;;;;;;;3.35;1.42;;;11.70;96.40;;;;;;5014775;28;20041;-68
2023/05/02 12:15:43;;;;;;;3.05;1.60;;;11.50;95.20;;;;;;5013977;28;20545;-69
2023/05/02 12:18:09;;;;;;;4.95;1.85;;;11.50;95.80;;;;;;5014049;28;20058;-68
2023/05/02 12:20:37;;;;;;;1.55;1.30;;;11.60;95.60;;;;;;5014022;28;20050;-68
2023/05/02 12:23:05;;;;;;;3.42;1.75;;;11.70;95.70;;;;;;5014080;28;20120;-68
2023/05/02 12:25:36;;;;;;;2.05;1.38;;;11.80;95.50;;;;;;5013941;28;20049;-69
2023/05/02 12:28:02;;;;;;;2.00;1.33;;;11.90;95.30;;;;;;5013564;28;20045;-68
2023/05/02 12:30:29;;;;;;;3.30;1.50;;;12.00;94.90;;;;;;5013873;28;20046;-68
2023/05/02 12:33:02;;;;;;;3.65;1.30;;;11.90;94.00;;;;;;5013457;28;20039;-68
2023/05/02 12:35:29;;;;;;;;;;;11.80;94.10;;;;;;5014511;28;20053;-68
2023/05/02 12:38:17;;;;;;;2.17;1.10;;;11.70;92.20;;;;;;4996420;28;19956;-68
2023/05/02 12:40:56;;;;;;;1.38;0.85;;;11.70;92.20;;;;;;5013538;28;20042;-68
2023/05/02 12:43:22;;;;;;;0.90;0.90;;;11.90;92.20;;;;;;5013656;28;20045;-68
2023/05/02 12:45:48;;;;;;;2.65;1.00;;;12.10;93.90;;;;;;5013554;28;20046;-68
2023/05/02 12:48:20;;;;;;;1.50;0.90;;;12.50;93.70;;;;;;5013363;28;20107;-68
2023/05/02 12:50:47;;;;;;;1.27;1.17;;;12.90;93.00;;;;;;5013471;28;20148;-68
2023/05/02 12:53:13;;;;;;;1.05;0.65;;;12.80;91.20;;;;;;4995867;28;20096;-68
2023/05/02 12:55:40;;;;;;;2.55;1.23;;;12.40;91.00;;;;;;5013304;28;20042;-68
2023/05/02 12:58:13;;;;;;;2.22;1.30;;;12.00;91.20;;;;;;5013294;28;20525;-69
2023/05/02 13:00:42;;;;;;;1.02;0.70;;;11.90;91.20;;;;;;5013327;28;20045;-68
2023/05/02 13:03:09;;;;;;;1.98;0.77;;;11.80;91.80;;;;;;5013235;28;20042;-68
2023/05/02 13:05:35;;;;;;;3.05;1.00;;;11.80;91.80;;;;;;5013225;28;20081;-68
2023/05/02 13:08:01;;;;;;;2.40;0.90;;;11.60;91.30;;;;;;5013147;28;20491;-69
2023/05/02 13:10:27;;;;;;;1.80;0.82;;;11.80;91.90;;;;;;5013058;28;20045;-68